createdAt,value
2018-12-08T00:00:48.064Z,88.28
2018-12-08T00:03:15.764Z,86.36
2018-12-08T00:05:43.432Z,82.29
2018-12-08T00:08:11.020Z,83.34
2018-12-08T00:10:38.627Z,83.07
2018-12-08T00:13:06.313Z,83.17
2018-12-08T00:15:33.917Z,84.34
2018-12-08T00:18:01.542Z,82.39
2018-12-08T00:20:29.149Z,82.37
2018-12-08T00:22:56.757Z,82.74
2018-12-08T00:25:24.428Z,82.50
2018-12-08T00:27:52.085Z,83.55
2018-12-08T00:33:23.965Z,81.50
2018-12-08T00:35:51.568Z,82.17
2018-12-08T00:38:19.188Z,81.82
2018-12-08T00:40:46.796Z,81.81
2018-12-08T00:43:14.417Z,80.95
2018-12-08T00:45:42.073Z,81.48
2018-12-08T00:48:09.736Z,80.77
2018-12-08T00:50:37.401Z,81.00
2018-12-08T00:53:05.061Z,80.36
2018-12-08T00:55:32.725Z,81.41
2018-12-08T00:58:00.492Z,80.50
2018-12-08T01:00:28.141Z,81.44
2018-12-08T01:02:55.769Z,81.63
2018-12-08T01:05:23.481Z,82.39
2018-12-08T01:07:51.143Z,81.87
2018-12-08T01:10:18.804Z,81.67
2018-12-08T01:12:46.469Z,81.86
2018-12-08T01:15:14.233Z,82.04
2018-12-08T01:17:41.900Z,82.45
2018-12-08T01:20:09.557Z,82.14
2018-12-08T01:22:37.221Z,83.22
2018-12-08T01:25:05.329Z,82.73
2018-12-08T01:27:32.961Z,83.18
2018-12-08T01:30:00.622Z,83.06
2018-12-08T01:32:28.280Z,82.56
2018-12-08T01:34:55.905Z,82.69
2018-12-08T01:37:23.512Z,82.68
2018-12-08T01:39:51.172Z,82.71
2018-12-08T01:42:18.836Z,83.19
2018-12-08T01:44:46.497Z,83.51
2018-12-08T01:47:14.104Z,83.41
2018-12-08T01:49:41.720Z,84.21
2018-12-08T01:52:09.324Z,83.91
2018-12-08T01:54:36.912Z,84.39
2018-12-08T01:57:04.512Z,85.00
2018-12-08T01:59:32.175Z,85.20
2018-12-08T02:01:59.780Z,84.79
2018-12-08T02:04:27.392Z,85.28
2018-12-08T02:06:55.168Z,85.71
2018-12-08T02:09:22.817Z,85.30
2018-12-08T02:11:50.480Z,85.32
2018-12-08T02:14:18.064Z,85.35
2018-12-08T02:16:45.692Z,85.04
2018-12-08T02:19:13.365Z,84.86
2018-12-08T02:21:41.027Z,85.07
2018-12-08T02:24:08.692Z,84.84
2018-12-08T02:26:36.352Z,84.74
2018-12-08T02:29:03.956Z,84.56
2018-12-08T02:31:31.539Z,84.40
2018-12-08T02:33:59.242Z,84.71
2018-12-08T02:36:26.901Z,83.95
2018-12-08T02:38:54.569Z,83.30
2018-12-08T02:41:22.224Z,83.74
2018-12-08T02:43:49.887Z,84.23
2018-12-08T02:46:17.552Z,84.00
2018-12-08T02:48:45.325Z,83.97
2018-12-08T02:51:12.979Z,83.62
2018-12-08T02:53:40.649Z,83.69
2018-12-08T02:56:08.309Z,83.60
2018-12-08T02:58:35.960Z,83.39
2018-12-08T03:01:03.545Z,82.60
2018-12-08T03:03:31.203Z,82.41
2018-12-08T03:05:58.856Z,83.35
2018-12-08T03:08:26.522Z,83.18
2018-12-08T03:10:54.170Z,82.76
2018-12-08T03:13:21.819Z,83.05
2018-12-08T03:15:49.504Z,83.01
2018-12-08T03:18:17.169Z,82.90
2018-12-08T03:20:44.822Z,83.12
2018-12-08T03:23:12.498Z,82.46
2018-12-08T03:25:40.166Z,82.43
2018-12-08T03:28:07.816Z,82.90
2018-12-08T03:30:35.486Z,81.98
2018-12-08T03:33:03.069Z,81.86
2018-12-08T03:35:30.694Z,81.63
2018-12-08T03:37:58.374Z,80.13
2018-12-08T03:40:26.085Z,79.84
2018-12-08T03:42:53.691Z,79.32
2018-12-08T03:45:21.360Z,79.12
2018-12-08T03:47:49.020Z,79.40
2018-12-08T03:50:16.670Z,80.11
2018-12-08T03:52:44.253Z,80.19
2018-12-08T03:55:11.851Z,79.56
2018-12-08T03:57:39.430Z,79.96
2018-12-08T04:00:07.536Z,80.28
2018-12-08T04:02:35.293Z,80.54
2018-12-08T04:05:03.033Z,80.98
2018-12-08T04:07:30.621Z,80.99
2018-12-08T04:09:58.501Z,80.41
2018-12-08T04:12:26.157Z,79.98
2018-12-08T04:14:53.825Z,80.25
2018-12-08T04:17:21.428Z,80.76
2018-12-08T04:19:49.012Z,80.84
2018-12-08T04:22:16.611Z,80.23
2018-12-08T04:24:44.193Z,80.39
2018-12-08T04:27:11.933Z,79.72
2018-12-08T04:29:39.561Z,79.69
2018-12-08T04:32:07.168Z,79.80
2018-12-08T04:34:34.911Z,79.24
2018-12-08T04:37:02.513Z,79.60
2018-12-08T04:39:30.141Z,79.24
2018-12-08T04:41:57.808Z,79.83
2018-12-08T04:44:25.472Z,79.03
2018-12-08T04:46:53.128Z,79.54
2018-12-08T04:49:20.796Z,79.96
2018-12-08T04:51:48.461Z,80.27
2018-12-08T04:54:16.040Z,80.18
2018-12-08T04:56:43.675Z,80.28
2018-12-08T04:59:11.346Z,80.02
2018-12-08T05:01:39.009Z,79.66
2018-12-08T05:04:06.596Z,79.78
2018-12-08T05:06:34.227Z,79.71
2018-12-08T05:09:01.887Z,79.81
2018-12-08T05:11:29.492Z,79.30
2018-12-08T05:13:57.121Z,79.33
2018-12-08T05:16:24.766Z,79.23
2018-12-08T05:18:52.444Z,78.72
2018-12-08T05:21:20.053Z,79.13
2018-12-08T05:23:47.660Z,78.66
2018-12-08T05:26:15.324Z,78.94
2018-12-08T05:28:43.002Z,78.55
2018-12-08T05:31:10.647Z,78.80
2018-12-08T05:33:38.318Z,78.74
2018-12-08T05:36:05.981Z,78.44
2018-12-08T05:38:33.643Z,78.82
2018-12-08T05:41:01.272Z,78.60
2018-12-08T05:43:28.881Z,78.64
2018-12-08T05:45:56.632Z,79.26
2018-12-08T05:48:24.296Z,79.15
2018-12-08T05:50:51.880Z,78.64
2018-12-08T05:53:19.517Z,78.55
2018-12-08T05:55:47.166Z,78.44
2018-12-08T05:58:14.840Z,78.26
2018-12-08T06:00:42.507Z,77.63
2018-12-08T06:03:10.108Z,77.47
2018-12-08T06:05:37.866Z,77.16
2018-12-08T06:08:05.487Z,77.64
2018-12-08T06:10:33.161Z,77.47
2018-12-08T06:13:00.816Z,77.63
2018-12-08T06:15:28.481Z,78.01
2018-12-08T06:17:56.139Z,78.39
2018-12-08T06:20:23.799Z,78.00
2018-12-08T06:22:51.477Z,78.44
2018-12-08T06:25:22.720Z,78.31
2018-12-08T06:27:57.118Z,78.02
2018-12-08T06:30:24.805Z,78.17
2018-12-08T06:32:52.413Z,77.93
2018-12-08T06:35:19.983Z,77.85
2018-12-08T06:37:47.680Z,78.26
2018-12-08T06:40:15.348Z,78.20
2018-12-08T06:42:42.999Z,78.24
2018-12-08T06:45:10.674Z,77.40
2018-12-08T06:47:38.332Z,77.63
2018-12-08T06:50:07.698Z,77.97
2018-12-08T06:52:35.400Z,77.61
2018-12-08T06:55:03.064Z,77.56
2018-12-08T06:57:30.733Z,77.76
2018-12-08T06:59:58.391Z,77.89
2018-12-08T07:02:26.047Z,77.56
2018-12-08T07:04:53.644Z,77.76
2018-12-08T07:07:21.281Z,77.39
2018-12-08T07:09:48.935Z,77.46
2018-12-08T07:12:16.601Z,77.65
2018-12-08T07:14:44.204Z,77.40
2018-12-08T07:17:11.824Z,77.54
2018-12-08T07:19:39.479Z,77.28
2018-12-08T07:22:07.142Z,77.06
2018-12-08T07:24:34.821Z,76.84
2018-12-08T07:27:02.471Z,76.98
2018-12-08T07:29:30.145Z,77.43
2018-12-08T07:31:57.800Z,76.80
2018-12-08T07:34:25.405Z,77.69
2018-12-08T07:36:53.024Z,77.17
2018-12-08T07:39:20.684Z,77.31
2018-12-08T07:41:48.343Z,77.34
2018-12-08T07:44:15.946Z,77.71
2018-12-08T07:46:43.708Z,78.05
2018-12-08T07:49:11.337Z,77.95
2018-12-08T07:51:39.009Z,78.18
2018-12-08T07:54:06.669Z,77.99
2018-12-08T07:56:34.253Z,78.02
2018-12-08T07:59:01.888Z,78.93
2018-12-08T08:01:29.548Z,78.52
2018-12-08T08:03:57.208Z,78.29
2018-12-08T08:06:24.866Z,78.56
2018-12-08T08:08:52.536Z,78.23
2018-12-08T08:11:20.200Z,78.14
2018-12-08T08:13:47.821Z,78.12
2018-12-08T08:16:15.402Z,78.03
2018-12-08T08:18:43.083Z,78.11
2018-12-08T08:21:10.755Z,78.48
2018-12-08T08:23:38.415Z,78.74
2018-12-08T08:26:06.071Z,78.02
2018-12-08T08:28:33.829Z,78.37
2018-12-08T08:31:01.494Z,77.80
2018-12-08T08:33:29.159Z,77.42
2018-12-08T08:35:56.827Z,77.50
2018-12-08T08:38:24.404Z,77.91
2018-12-08T08:40:52.009Z,77.45
2018-12-08T08:43:19.613Z,77.42
2018-12-08T08:45:47.267Z,77.53
2018-12-08T08:48:14.851Z,77.78
2018-12-08T08:50:42.505Z,77.65
2018-12-08T08:53:10.164Z,77.68
2018-12-08T08:55:37.829Z,77.69
2018-12-08T08:58:05.474Z,77.87
2018-12-08T09:00:33.070Z,77.23
2018-12-08T09:03:00.711Z,77.76
2018-12-08T09:05:28.343Z,77.67
2018-12-08T09:07:56.034Z,77.69
2018-12-08T09:10:23.687Z,78.35
2018-12-08T09:12:51.361Z,78.45
2018-12-08T09:15:19.129Z,78.50
2018-12-08T09:17:46.756Z,79.08
2018-12-08T09:20:14.365Z,79.14
2018-12-08T09:22:42.007Z,78.80
2018-12-08T09:25:09.671Z,79.45
2018-12-08T09:27:37.326Z,79.05
2018-12-08T09:30:05.825Z,79.15
2018-12-08T09:32:33.480Z,79.01
2018-12-08T09:35:01.113Z,79.00
2018-12-08T09:37:28.798Z,79.84
2018-12-08T09:39:57.180Z,79.93
2018-12-08T09:42:25.010Z,79.41
2018-12-08T09:44:52.611Z,79.93
2018-12-08T09:47:20.285Z,79.61
2018-12-08T09:49:47.944Z,79.39
2018-12-08T09:52:15.605Z,79.37
2018-12-08T09:54:43.259Z,79.86
2018-12-08T09:57:11.037Z,79.50
2018-12-08T09:59:38.653Z,79.90
2018-12-08T10:02:06.390Z,79.32
2018-12-08T10:04:33.964Z,79.38
2018-12-08T10:07:01.592Z,78.53
2018-12-08T10:09:29.244Z,79.33
2018-12-08T10:11:56.897Z,78.75
2018-12-08T10:14:24.571Z,78.58
2018-12-08T10:16:52.345Z,78.51
2018-12-08T10:19:19.991Z,78.21
2018-12-08T10:21:47.669Z,77.16
2018-12-08T10:24:15.261Z,77.46
2018-12-08T10:26:42.884Z,77.62
2018-12-08T10:29:11.320Z,77.62
2018-12-08T10:31:39.018Z,76.87
2018-12-08T10:34:06.696Z,76.46
2018-12-08T10:36:34.331Z,76.12
2018-12-08T10:39:02.016Z,75.97
2018-12-08T10:41:29.675Z,76.14
2018-12-08T10:43:57.350Z,75.62
2018-12-08T10:46:25.006Z,75.75
2018-12-08T10:48:52.863Z,75.52
2018-12-08T10:51:20.537Z,76.06
2018-12-08T10:53:48.190Z,75.78
2018-12-08T10:56:15.851Z,75.54
2018-12-08T10:58:43.524Z,74.84
2018-12-08T11:01:27.981Z,75.31
2018-12-08T11:03:55.749Z,75.38
2018-12-08T11:06:23.327Z,75.56
2018-12-08T11:08:51.054Z,75.37
2018-12-08T11:11:18.633Z,75.64
2018-12-08T11:13:46.292Z,76.56
2018-12-08T11:16:13.951Z,77.13
2018-12-08T11:18:41.625Z,76.93
2018-12-08T11:21:09.284Z,77.10
2018-12-08T11:23:38.426Z,77.41
2018-12-08T11:26:06.300Z,77.59
2018-12-08T11:28:34.015Z,78.14
2018-12-08T11:31:01.681Z,77.83
2018-12-08T11:33:29.271Z,78.58
2018-12-08T11:35:56.848Z,78.37
2018-12-08T11:38:24.560Z,77.48
2018-12-08T11:40:52.224Z,77.97
2018-12-08T11:43:19.879Z,78.34
2018-12-08T11:45:47.464Z,77.80
2018-12-08T11:48:15.105Z,78.27
2018-12-08T11:50:42.777Z,78.07
2018-12-08T11:53:10.441Z,77.32
2018-12-08T11:55:38.202Z,77.83
2018-12-08T11:58:05.865Z,77.85
2018-12-08T12:00:33.497Z,78.23
2018-12-08T12:03:01.189Z,77.33
2018-12-08T12:05:28.843Z,77.75
2018-12-08T12:07:56.428Z,77.87
2018-12-08T12:10:24.070Z,78.06
2018-12-08T12:12:51.831Z,77.56
2018-12-08T12:15:19.439Z,78.37
2018-12-08T12:17:47.056Z,78.01
2018-12-08T12:20:14.733Z,78.63
2018-12-08T12:22:42.397Z,78.66
2018-12-08T12:25:10.388Z,78.47
2018-12-08T12:27:37.963Z,78.57
2018-12-08T12:30:07.629Z,77.96
2018-12-08T12:32:35.293Z,78.52
2018-12-08T12:35:02.948Z,78.70
2018-12-08T12:37:30.620Z,78.26
2018-12-08T12:39:58.280Z,78.52
2018-12-08T12:42:25.944Z,79.32
2018-12-08T12:44:53.606Z,78.52
2018-12-08T12:47:21.195Z,79.06
2018-12-08T12:49:48.788Z,78.57
2018-12-08T12:52:16.480Z,78.10
2018-12-08T12:54:44.147Z,78.19
2018-12-08T12:57:11.821Z,78.92
2018-12-08T12:59:39.599Z,77.87
2018-12-08T13:02:07.249Z,77.96
2018-12-08T13:04:34.999Z,77.62
2018-12-08T13:07:02.677Z,77.87
2018-12-08T13:09:30.337Z,77.70
2018-12-08T13:11:58.186Z,77.88
2018-12-08T13:14:25.755Z,77.47
2018-12-08T13:16:53.419Z,77.29
2018-12-08T13:19:21.089Z,77.05
2018-12-08T13:21:48.753Z,77.16
2018-12-08T13:24:16.446Z,77.72
2018-12-08T13:26:44.196Z,77.35
2018-12-08T13:29:11.785Z,76.89
2018-12-08T13:31:39.391Z,76.33
2018-12-08T13:34:28.456Z,77.08
2018-12-08T13:36:56.101Z,76.79
2018-12-08T13:39:23.782Z,76.38
2018-12-08T13:41:51.461Z,76.16
2018-12-08T13:44:30.745Z,76.28
2018-12-08T13:46:58.449Z,76.37
2018-12-08T13:49:26.118Z,75.87
2018-12-08T13:51:53.781Z,76.37
2018-12-08T13:57:22.593Z,76.14
2018-12-08T13:59:51.191Z,75.57
2018-12-08T14:02:18.930Z,76.09
2018-12-08T14:04:46.553Z,75.87
2018-12-08T14:07:14.272Z,75.87
2018-12-08T14:09:41.984Z,76.25
2018-12-08T14:12:09.793Z,75.95
2018-12-08T14:14:37.378Z,76.29
2018-12-08T14:17:05.019Z,76.30
2018-12-08T14:19:32.685Z,75.78
2018-12-08T14:22:00.343Z,75.44
2018-12-08T14:24:27.933Z,75.43
2018-12-08T14:26:55.579Z,75.16
2018-12-08T14:29:23.177Z,75.00
2018-12-08T14:31:51.120Z,75.91
2018-12-08T14:34:18.787Z,75.45
2018-12-08T14:36:46.405Z,74.79
2018-12-08T14:39:14.083Z,74.89
2018-12-08T14:41:41.747Z,74.99
2018-12-08T14:44:09.417Z,76.24
2018-12-08T14:46:37.077Z,76.18
2018-12-08T14:49:04.740Z,76.30
2018-12-08T14:51:32.407Z,76.84
2018-12-08T14:54:00.005Z,76.73
2018-12-08T14:56:27.632Z,76.71
2018-12-08T14:58:55.300Z,77.00
2018-12-08T15:01:22.953Z,77.16
2018-12-08T15:03:50.607Z,77.68
2018-12-08T15:06:18.280Z,77.28
2018-12-08T15:08:45.939Z,77.19
2018-12-08T15:11:13.604Z,77.80
2018-12-08T15:13:41.332Z,77.75
2018-12-08T15:16:09.026Z,78.54
2018-12-08T15:18:36.696Z,78.87
2018-12-08T15:21:04.274Z,78.70
2018-12-08T15:23:32.025Z,79.67
2018-12-08T15:25:59.613Z,79.87
2018-12-08T15:28:27.235Z,79.40
2018-12-08T15:30:54.808Z,79.00
2018-12-08T15:33:22.519Z,79.85
2018-12-08T15:35:50.158Z,79.49
2018-12-08T15:38:17.904Z,79.60
2018-12-08T15:40:45.552Z,80.08
2018-12-08T15:43:13.137Z,80.35
2018-12-08T15:45:40.875Z,81.19
2018-12-08T15:48:08.544Z,80.58
2018-12-08T15:50:36.213Z,80.93
2018-12-08T15:53:03.823Z,81.16
2018-12-08T15:55:31.428Z,81.38
2018-12-08T15:57:59.008Z,82.31
2018-12-08T16:00:26.664Z,82.25
2018-12-08T16:02:54.235Z,81.73
2018-12-08T16:05:21.841Z,81.77
2018-12-08T16:07:49.436Z,81.71
2018-12-08T16:10:17.106Z,81.77
2018-12-08T16:12:44.768Z,81.62
2018-12-08T16:15:12.428Z,81.70
2018-12-08T16:17:40.078Z,81.62
2018-12-08T16:20:09.690Z,82.27
2018-12-08T16:22:37.320Z,82.29
2018-12-08T16:25:05.945Z,82.73
2018-12-08T16:27:33.564Z,82.53
2018-12-08T16:30:01.158Z,82.36
2018-12-08T16:32:28.837Z,82.34
2018-12-08T16:34:56.505Z,82.64
2018-12-08T16:37:24.165Z,82.91
2018-12-08T16:39:51.752Z,82.57
2018-12-08T16:42:19.396Z,82.94
2018-12-08T16:44:47.039Z,82.50
2018-12-08T16:47:14.645Z,83.16
2018-12-08T16:49:42.477Z,83.21
2018-12-08T16:52:10.132Z,83.50
2018-12-08T16:54:37.747Z,84.10
2018-12-08T16:57:05.391Z,83.97
2018-12-08T16:59:33.009Z,84.09
2018-12-08T17:02:00.680Z,83.88
2018-12-08T17:04:28.348Z,84.37
2018-12-08T17:06:56.008Z,84.58
2018-12-08T17:09:23.669Z,84.30
2018-12-08T17:11:51.273Z,84.56
2018-12-08T17:14:18.991Z,85.41
2018-12-08T17:16:46.592Z,85.30
2018-12-08T17:19:14.332Z,84.95
2018-12-08T17:21:42.004Z,85.40
2018-12-08T17:24:09.652Z,85.71
2018-12-08T17:26:37.324Z,85.70
2018-12-08T17:29:06.064Z,85.22
2018-12-08T17:31:34.179Z,85.54
2018-12-08T17:34:01.841Z,85.19
2018-12-08T17:36:29.428Z,85.10
2018-12-08T17:38:57.060Z,84.95
2018-12-08T17:41:24.720Z,84.19
2018-12-08T17:43:52.374Z,84.76
2018-12-08T17:46:20.048Z,85.25
2018-12-08T17:48:47.646Z,84.82
2018-12-08T17:51:15.268Z,85.31
2018-12-08T17:53:42.872Z,84.69
2018-12-08T17:56:10.491Z,84.68
2018-12-08T17:58:38.159Z,85.32
2018-12-08T18:01:05.822Z,85.12
2018-12-08T18:03:33.483Z,84.72
2018-12-08T18:06:01.153Z,85.05
2018-12-08T18:08:28.755Z,84.89
2018-12-08T18:10:56.369Z,84.72
2018-12-08T18:13:24.040Z,85.06
2018-12-08T18:15:51.700Z,84.94
2018-12-08T18:18:19.300Z,85.27
2018-12-08T18:20:46.971Z,86.18
2018-12-08T18:23:14.694Z,85.94
2018-12-08T18:25:42.343Z,86.16
2018-12-08T18:28:09.957Z,86.32
2018-12-08T18:30:37.573Z,86.37
2018-12-08T18:33:05.180Z,86.65
2018-12-08T18:35:32.756Z,86.79
2018-12-08T18:38:00.452Z,87.41
2018-12-08T18:40:28.046Z,86.80
2018-12-08T18:42:55.672Z,87.52
2018-12-08T18:45:23.248Z,87.56
2018-12-08T18:47:50.905Z,87.07
2018-12-08T18:50:18.578Z,87.03
2018-12-08T18:52:46.227Z,86.92
2018-12-08T18:55:13.897Z,86.94
2018-12-08T18:57:41.512Z,86.82
2018-12-08T19:00:11.136Z,86.57
2018-12-08T19:02:38.820Z,85.99
2018-12-08T19:05:08.576Z,86.75
2018-12-08T19:07:36.409Z,86.34
2018-12-08T19:10:04.596Z,85.77
2018-12-08T19:12:32.183Z,85.74
2018-12-08T19:14:59.790Z,85.45
2018-12-08T19:17:27.459Z,85.61
2018-12-08T19:19:55.060Z,85.33
2018-12-08T19:22:22.693Z,85.52
2018-12-08T19:24:50.371Z,84.96
2018-12-08T19:27:18.013Z,85.22
2018-12-08T19:29:45.626Z,85.25
2018-12-08T19:32:13.236Z,84.81
2018-12-08T19:34:40.976Z,84.73
2018-12-08T19:37:08.664Z,84.12
2018-12-08T19:39:36.326Z,83.97
2018-12-08T19:42:03.989Z,83.09
2018-12-08T19:44:31.581Z,83.26
2018-12-08T19:46:59.189Z,82.64
2018-12-08T19:49:26.863Z,82.75
2018-12-08T19:51:54.635Z,82.02
2018-12-08T19:54:22.308Z,81.77
2018-12-08T19:56:50.051Z,81.38
2018-12-08T19:59:17.933Z,80.75
2018-12-08T20:01:45.594Z,80.16
2018-12-08T20:04:13.261Z,79.92
2018-12-08T20:06:40.924Z,80.01
2018-12-08T20:09:08.534Z,79.27
2018-12-08T20:11:36.144Z,78.74
2018-12-08T20:14:04.105Z,78.53
2018-12-08T20:16:31.781Z,78.58
2018-12-08T20:18:59.543Z,78.14
2018-12-08T20:21:27.189Z,78.33
2018-12-08T20:23:54.773Z,78.79
2018-12-08T20:26:22.423Z,78.30
2018-12-08T20:28:50.101Z,77.90
2018-12-08T20:31:17.753Z,78.10
2018-12-08T20:33:45.416Z,77.61
2018-12-08T20:36:13.083Z,77.43
2018-12-08T20:38:40.749Z,77.88
2018-12-08T20:41:08.415Z,78.11
2018-12-08T20:43:36.073Z,77.82
2018-12-08T20:46:03.736Z,77.39
2018-12-08T20:48:31.401Z,77.34
2018-12-08T20:50:58.996Z,77.34
2018-12-08T20:53:26.625Z,77.57
2018-12-08T20:55:54.213Z,77.12
2018-12-08T20:58:21.831Z,76.32
2018-12-08T21:00:49.416Z,76.39
2018-12-08T21:03:17.020Z,75.83
2018-12-08T21:05:44.604Z,76.26
2018-12-08T21:08:12.284Z,75.77
2018-12-08T21:10:39.917Z,75.25
2018-12-08T21:13:07.515Z,75.49
2018-12-08T21:15:35.175Z,75.83
2018-12-08T21:18:02.828Z,75.32
2018-12-08T21:20:30.592Z,74.70
2018-12-08T21:22:58.310Z,74.39
2018-12-08T21:25:26.020Z,74.21
2018-12-08T21:27:53.687Z,73.98
2018-12-08T21:30:21.304Z,74.49
2018-12-08T21:32:49.017Z,74.14
2018-12-08T21:35:16.689Z,74.15
2018-12-08T21:37:44.264Z,73.90
2018-12-08T21:40:16.397Z,74.50
2018-12-08T21:42:43.976Z,74.06
2018-12-08T21:45:11.624Z,74.44
2018-12-08T21:47:39.217Z,74.52
2018-12-08T21:50:06.861Z,75.12
2018-12-08T21:52:34.523Z,75.58
2018-12-08T21:55:02.192Z,75.54
2018-12-08T21:57:29.848Z,76.11
2018-12-08T21:59:57.512Z,75.62
2018-12-08T22:02:25.177Z,76.22
2018-12-08T22:04:52.834Z,75.98
2018-12-08T22:07:20.501Z,76.83
2018-12-08T22:09:48.094Z,76.94
2018-12-08T22:12:15.736Z,76.91
2018-12-08T22:14:49.106Z,77.02
2018-12-08T22:17:16.782Z,76.95
2018-12-08T22:19:44.439Z,77.12
2018-12-08T22:22:12.113Z,77.34
2018-12-08T22:24:39.721Z,77.44
2018-12-08T22:27:07.301Z,77.54
2018-12-08T22:29:35.084Z,78.09
2018-12-08T22:32:02.761Z,77.85
2018-12-08T22:34:30.359Z,78.05
2018-12-08T22:36:57.945Z,78.81
2018-12-08T22:39:25.571Z,78.73
2018-12-08T22:41:53.894Z,78.72
2018-12-08T22:44:21.588Z,78.84
2018-12-08T22:46:49.197Z,78.76
2018-12-08T22:49:16.770Z,78.86
2018-12-08T22:51:44.363Z,78.90
2018-12-08T22:54:11.946Z,79.00
2018-12-08T22:56:39.554Z,79.46
2018-12-08T22:59:07.753Z,79.49
2018-12-08T23:01:35.435Z,79.39
2018-12-08T23:04:03.100Z,78.85
2018-12-08T23:06:30.757Z,78.82
2018-12-08T23:08:58.406Z,79.13
2018-12-08T23:11:26.068Z,78.47
2018-12-08T23:13:53.740Z,78.45
2018-12-08T23:16:21.391Z,79.22
2018-12-08T23:18:49.015Z,78.69
2018-12-08T23:21:16.633Z,78.96
2018-12-08T23:23:44.221Z,78.18
2018-12-08T23:26:11.850Z,78.80
2018-12-08T23:28:39.503Z,78.63
2018-12-08T23:31:07.586Z,79.06
2018-12-08T23:33:35.256Z,78.40
2018-12-08T23:36:03.354Z,77.88
2018-12-08T23:38:30.932Z,78.14
2018-12-08T23:40:58.597Z,77.12
2018-12-08T23:43:26.214Z,76.77
2018-12-08T23:45:53.803Z,77.08
2018-12-08T23:50:55.282Z,76.36
2018-12-08T23:53:22.904Z,77.18
2018-12-08T23:55:50.555Z,77.30
2018-12-08T23:58:18.239Z,76.80
